sensor_id;sensor_type;location;lat;lon;timestamp;P1;durP1;ratioP1;P2;durP2;ratioP2
50649;SDS011;36621;60.058;30.346;2023-04-06T00:04:43;7.10;;;3.30;;
50649;SDS011;36621;60.058;30.346;2023-04-06T00:12:16;5.95;;;3.88;;
50649;SDS011;36621;60.058;30.346;2023-04-06T00:19:48;7.80;;;4.57;;
50649;SDS011;36621;60.058;30.346;2023-04-06T00:27:21;7.53;;;4.68;;
50649;SDS011;36621;60.058;30.346;2023-04-06T00:34:53;7.53;;;4.65;;
50649;SDS011;36621;60.058;30.346;2023-04-06T00:42:26;10.30;;;5.50;;
50649;SDS011;36621;60.058;30.346;2023-04-06T00:49:58;8.18;;;5.78;;
50649;SDS011;36621;60.058;30.346;2023-04-06T00:57:31;10.25;;;6.43;;
50649;SDS011;36621;60.058;30.346;2023-04-06T01:05:03;9.18;;;6.30;;
50649;SDS011;36621;60.058;30.346;2023-04-06T01:12:51;10.35;;;6.18;;
50649;SDS011;36621;60.058;30.346;2023-04-06T01:20:37;11.40;;;6.50;;
50649;SDS011;36621;60.058;30.346;2023-04-06T01:28:12;7.80;;;5.75;;
50649;SDS011;36621;60.058;30.346;2023-04-06T01:36:09;10.02;;;6.00;;
50649;SDS011;36621;60.058;30.346;2023-04-06T01:43:42;10.52;;;5.97;;
50649;SDS011;36621;60.058;30.346;2023-04-06T01:51:15;10.18;;;5.57;;
50649;SDS011;36621;60.058;30.346;2023-04-06T02:06:29;9.05;;;5.00;;
50649;SDS011;36621;60.058;30.346;2023-04-06T02:14:03;8.60;;;4.88;;
50649;SDS011;36621;60.058;30.346;2023-04-06T02:21:40;7.90;;;5.22;;
50649;SDS011;36621;60.058;30.346;2023-04-06T02:29:13;8.88;;;4.75;;
50649;SDS011;36621;60.058;30.346;2023-04-06T02:36:45;7.55;;;5.43;;
50649;SDS011;36621;60.058;30.346;2023-04-06T02:44:20;6.43;;;4.97;;
50649;SDS011;36621;60.058;30.346;2023-04-06T02:51:55;7.15;;;5.75;;
50649;SDS011;36621;60.058;30.346;2023-04-06T02:59:32;9.25;;;6.03;;
50649;SDS011;36621;60.058;30.346;2023-04-06T03:07:13;11.98;;;7.07;;
50649;SDS011;36621;60.058;30.346;2023-04-06T03:14:46;10.75;;;7.22;;
50649;SDS011;36621;60.058;30.346;2023-04-06T03:22:19;14.25;;;9.65;;
50649;SDS011;36621;60.058;30.346;2023-04-06T03:29:53;19.00;;;9.30;;
50649;SDS011;36621;60.058;30.346;2023-04-06T03:37:33;28.80;;;11.07;;
50649;SDS011;36621;60.058;30.346;2023-04-06T03:45:09;19.80;;;11.77;;
50649;SDS011;36621;60.058;30.346;2023-04-06T03:52:47;27.02;;;13.43;;
50649;SDS011;36621;60.058;30.346;2023-04-06T04:00:20;26.90;;;13.52;;
50649;SDS011;36621;60.058;30.346;2023-04-06T04:07:52;24.10;;;14.18;;
50649;SDS011;36621;60.058;30.346;2023-04-06T04:15:29;26.95;;;14.45;;
50649;SDS011;36621;60.058;30.346;2023-04-06T04:23:01;27.75;;;13.48;;
50649;SDS011;36621;60.058;30.346;2023-04-06T04:30:37;27.60;;;13.93;;
50649;SDS011;36621;60.058;30.346;2023-04-06T04:38:14;24.58;;;15.52;;
50649;SDS011;36621;60.058;30.346;2023-04-06T04:45:56;28.48;;;16.02;;
50649;SDS011;36621;60.058;30.346;2023-04-06T04:53:43;29.60;;;15.07;;
50649;SDS011;36621;60.058;30.346;2023-04-06T05:01:25;25.90;;;13.73;;
50649;SDS011;36621;60.058;30.346;2023-04-06T05:08:58;29.63;;;15.57;;
50649;SDS011;36621;60.058;30.346;2023-04-06T05:16:34;36.63;;;16.13;;
50649;SDS011;36621;60.058;30.346;2023-04-06T05:24:08;37.95;;;17.50;;
50649;SDS011;36621;60.058;30.346;2023-04-06T05:31:42;35.25;;;18.80;;
50649;SDS011;36621;60.058;30.346;2023-04-06T05:39:14;35.08;;;18.20;;
50649;SDS011;36621;60.058;30.346;2023-04-06T05:54:26;36.22;;;20.38;;
50649;SDS011;36621;60.058;30.346;2023-04-06T06:09:41;34.50;;;15.98;;
50649;SDS011;36621;60.058;30.346;2023-04-06T06:17:29;34.20;;;13.32;;
50649;SDS011;36621;60.058;30.346;2023-04-06T16:37:32;8.90;;;1.27;;
50649;SDS011;36621;60.058;30.346;2023-04-06T16:45:08;4.50;;;1.00;;
50649;SDS011;36621;60.058;30.346;2023-04-06T16:52:42;6.10;;;1.30;;
50649;SDS011;36621;60.058;30.346;2023-04-06T17:00:17;5.75;;;1.15;;
50649;SDS011;36621;60.058;30.346;2023-04-06T17:07:51;4.75;;;1.00;;
50649;SDS011;36621;60.058;30.346;2023-04-06T17:15:24;11.93;;;1.67;;
50649;SDS011;36621;60.058;30.346;2023-04-06T17:22:58;2.83;;;1.10;;
50649;SDS011;36621;60.058;30.346;2023-04-06T17:30:31;8.55;;;1.50;;
50649;SDS011;36621;60.058;30.346;2023-04-06T17:38:04;6.57;;;1.58;;
50649;SDS011;36621;60.058;30.346;2023-04-06T17:45:38;3.17;;;1.02;;
50649;SDS011;36621;60.058;30.346;2023-04-06T17:53:11;3.22;;;1.17;;
50649;SDS011;36621;60.058;30.346;2023-04-06T18:00:44;2.88;;;1.02;;
50649;SDS011;36621;60.058;30.346;2023-04-06T18:08:17;5.57;;;1.10;;
50649;SDS011;36621;60.058;30.346;2023-04-06T18:15:49;5.40;;;1.33;;
50649;SDS011;36621;60.058;30.346;2023-04-06T18:23:22;3.75;;;1.20;;
50649;SDS011;36621;60.058;30.346;2023-04-06T18:30:54;8.18;;;2.10;;
50649;SDS011;36621;60.058;30.346;2023-04-06T18:38:29;5.43;;;1.30;;
50649;SDS011;36621;60.058;30.346;2023-04-06T18:46:01;2.00;;;1.00;;
50649;SDS011;36621;60.058;30.346;2023-04-06T18:53:34;5.13;;;0.90;;
50649;SDS011;36621;60.058;30.346;2023-04-06T19:01:07;3.78;;;0.80;;
50649;SDS011;36621;60.058;30.346;2023-04-06T19:08:42;6.38;;;1.17;;
50649;SDS011;36621;60.058;30.346;2023-04-06T19:16:19;3.92;;;1.15;;
50649;SDS011;36621;60.058;30.346;2023-04-06T19:23:56;4.40;;;1.00;;
50649;SDS011;36621;60.058;30.346;2023-04-06T19:31:28;11.27;;;2.45;;
50649;SDS011;36621;60.058;30.346;2023-04-06T19:39:03;5.22;;;1.50;;
50649;SDS011;36621;60.058;30.346;2023-04-06T19:46:36;7.65;;;1.50;;
50649;SDS011;36621;60.058;30.346;2023-04-06T19:54:08;2.72;;;1.40;;
50649;SDS011;36621;60.058;30.346;2023-04-06T20:01:41;6.38;;;1.35;;
50649;SDS011;36621;60.058;30.346;2023-04-06T20:09:13;4.10;;;1.60;;
50649;SDS011;36621;60.058;30.346;2023-04-06T20:16:46;12.18;;;1.40;;
50649;SDS011;36621;60.058;30.346;2023-04-06T20:24:19;7.18;;;1.20;;
50649;SDS011;36621;60.058;30.346;2023-04-06T20:31:51;7.40;;;1.55;;
50649;SDS011;36621;60.058;30.346;2023-04-06T20:39:24;6.20;;;1.10;;
50649;SDS011;36621;60.058;30.346;2023-04-06T20:46:57;7.30;;;1.70;;
50649;SDS011;36621;60.058;30.346;2023-04-06T20:54:32;3.22;;;1.60;;
50649;SDS011;36621;60.058;30.346;2023-04-06T21:02:11;9.10;;;1.45;;
50649;SDS011;36621;60.058;30.346;2023-04-06T21:09:45;9.75;;;2.00;;
50649;SDS011;36621;60.058;30.346;2023-04-06T21:17:20;6.28;;;1.80;;
50649;SDS011;36621;60.058;30.346;2023-04-06T21:24:53;13.57;;;2.90;;
50649;SDS011;36621;60.058;30.346;2023-04-06T21:32:25;17.08;;;3.30;;
50649;SDS011;36621;60.058;30.346;2023-04-06T21:39:57;32.13;;;4.65;;
50649;SDS011;36621;60.058;30.346;2023-04-06T21:47:33;17.50;;;4.53;;
50649;SDS011;36621;60.058;30.346;2023-04-06T21:55:06;27.23;;;5.13;;
50649;SDS011;36621;60.058;30.346;2023-04-06T22:02:38;9.25;;;3.20;;
50649;SDS011;36621;60.058;30.346;2023-04-06T22:10:11;3.33;;;1.90;;
50649;SDS011;36621;60.058;30.346;2023-04-06T22:17:43;4.70;;;2.55;;
50649;SDS011;36621;60.058;30.346;2023-04-06T22:25:19;10.70;;;2.50;;
50649;SDS011;36621;60.058;30.346;2023-04-06T22:32:51;6.35;;;2.03;;
50649;SDS011;36621;60.058;30.346;2023-04-06T22:40:24;5.50;;;2.70;;
50649;SDS011;36621;60.058;30.346;2023-04-06T22:47:56;7.82;;;2.60;;
50649;SDS011;36621;60.058;30.346;2023-04-06T22:55:29;13.73;;;2.42;;
50649;SDS011;36621;60.058;30.346;2023-04-06T23:03:01;6.05;;;2.50;;
50649;SDS011;36621;60.058;30.346;2023-04-06T23:10:33;5.72;;;2.33;;
50649;SDS011;36621;60.058;30.346;2023-04-06T23:18:08;6.28;;;2.47;;
50649;SDS011;36621;60.058;30.346;2023-04-06T23:25:40;10.85;;;2.50;;
50649;SDS011;36621;60.058;30.346;2023-04-06T23:33:12;9.38;;;2.58;;
50649;SDS011;36621;60.058;30.346;2023-04-06T23:40:45;9.48;;;2.65;;
50649;SDS011;36621;60.058;30.346;2023-04-06T23:48:17;10.20;;;2.42;;
50649;SDS011;36621;60.058;30.346;2023-04-06T23:55:49;9.75;;;3.20;;
